KPZQ METAR Reports


Rogers City, Presque Isle County Airport, MI, United States (KPZQ) 45-24-25N 083-48-46W
Jan 27, 2023 - 09:15 AM EST / 2023.01.27 1415 UTC
Wind: from the S (170 degrees) at 8 MPH (7 KT):0
Visibility: 10 mile(s):0
Sky conditions: partly cloudy
Temperature: 19.4 F (-7.0 C)
Windchill: 10 F (-12 C):1
Dew Point: 15.8 F (-9.0 C)
Relative Humidity: 85%
Pressure (altimeter): 29.81 in. Hg (1009 hPa)
ob: KPZQ 271415Z AUTO 17007KT 10SM SCT032 M07/M09 A2981 RMK AO2 T10701090
cycle: 14

 

Rogers City METAR Meteogram

Weather Chart

Nearby METAR Reports

KPZQ - Rogers City, Michigan, USA
Distance from station: SSW 1mi, 2km
Updated: Fri, 27-Jan-2023 8:55am EST
Partly cloudy
Partly cloudy
 Wind from S
Wind: S 9 mph , 15 km/h
Temperature: 18°F , -8°C
Wind Chill: 7°F , -14°C
Dew Point: 14°F , -10°C
Humidity: 86%
Barometer: 29.80 inHg , 1009.1 hPa
Clouds: Partly cloudy
Visibility: 10 miles , 16 km
Cloud details: Partly cloudy 3400 ft
2023/01/27 13:55 KPZQ 271355Z AUTO 17008KT 10SM SCT034 M08/M10 A2980 RMK AO2 T10791096
KAPN - Alpena, Michigan, USA
Distance from station: SSE 27mi, 43km
Updated: Fri, 27-Jan-2023 8:54am EST
NOT Current
Partly cloudy
Partly cloudy
 Wind from SSE
Wind: SSE 10 mph , 17 km/h
Temperature: 18°F , -8°C
Wind Chill: 6°F , -14°C
Dew Point: 16°F , -9°C
Humidity: 93%
Barometer: 29.82 inHg , 1009.8 hPa
Clouds: Partly cloudy
Visibility: 10 miles , 16 km
Cloud details: Partly cloudy 4000 ft
2023/01/27 13:54 KAPN 271354Z AUTO 16009KT 10SM SCT040 M08/M09 A2982 RMK AO2 SLP110 T10831094
 
KSLH - Cheboygan, Michigan, USA
Distance from station: WNW 38mi, 61km
Updated: Fri, 27-Jan-2023 9:15am EST
Partly cloudy
Partly cloudy
 Wind from SSE
Wind: SSE 7 mph , 11 km/h
Temperature: 19°F , -7°C
Wind Chill: 10°F , -12°C
Dew Point: 16°F , -9°C
Humidity: 86%
Barometer: 29.74 inHg , 1007.1 hPa
Clouds: Partly cloudy
Visibility: 10 miles , 16 km
Cloud details: Partly cloudy 3100 ft
2023/01/27 14:15 KSLH 271415Z AUTO 15006KT 10SM SCT031 M07/M09 A2974 RMK AO2
KDRM - Drummond Is, Michigan, USA
Distance from station: N 40mi, 65km
Updated: Fri, 27-Jan-2023 9:15am EST
Overcast
Overcast
 Wind from S
Wind: S 10 mph , 17 km/h, Gust: 17 mph , 28 km/h
Temperature: 25°F , -4°C
Wind Chill: 15°F , -9°C
Dew Point: 25°F , -4°C
Humidity: 100%
Barometer: 29.76 inHg , 1007.8 hPa
Clouds: Overcast
Visibility: 10 miles , 16 km
Cloud details: Overcast 3700 ft
2023/01/27 14:15 KDRM 271415Z AUTO 17009G15KT 10SM OVC037 M04/M04 A2976 RMK AO2 T10361045
 
KPLN - Pellston, Michigan, USA
Distance from station: WNW 49mi, 79km
Updated: Fri, 27-Jan-2023 9:03am EST
Overcast
Overcast
 Wind from SE
Wind: SE 6 mph , 9 km/h
Temperature: 18°F , -8°C
Wind Chill: 10°F , -12°C
Dew Point: 14°F , -10°C
Humidity: 86%
Barometer: 29.74 inHg , 1007.1 hPa
Clouds: Overcast
Visibility: 10 miles , 16 km
Cloud details: Mostly cloudy 2600 ft
Overcast 3100 ft
2023/01/27 14:03 KPLN 271403Z AUTO 14005KT 10SM BKN026 OVC031 M08/M10 A2974 RMK AO2 T10831100
KMCD - Mackinac Island, Michigan, USA
Distance from station: NW 50mi, 80km
Updated: Fri, 27-Jan-2023 9:15am EST
Overcast
Overcast
 Wind from S
Wind: S 10 mph , 17 km/h, Gust: 23 mph , 37 km/h
Temperature: 21°F , -6°C
Wind Chill: 10°F , -12°C
Dew Point: 18°F , -8°C
Humidity: 86%
Barometer: 29.72 inHg , 1006.4 hPa
Clouds: Overcast
Visibility: 10 miles , 16 km
Cloud details: Partly cloudy 2800 ft
Overcast 3400 ft
2023/01/27 14:15 KMCD 271415Z AUTO 17009G20KT 140V220 10SM SCT028 OVC034 M06/M08 A2972 RMK AO2 T10561079